Time;durP1;ratioP1;P1;durP2;ratioP2;P2;SDS_P1;SDS_P2;PMS_P1;PMS_P2;Temp;Humidity;BMP_temperature;BMP_pressure;BME280_temperature;BME280_humidity;BME280_pressure;Samples;Min_cycle;Max_cycle;Signal;HPM_P1;HPM_P2
2021/12/16 00:02:07;;;;;;;;;;;15.30;99.90;;;;;;5016666;28;813;-54
2021/12/16 00:07:34;;;;;;;;;;;15.20;99.90;;;;;;5017261;28;825;-54
2021/12/16 00:34:04;;;;;;;;;;;15.10;99.90;;;;;;5017207;28;883;-54
2021/12/16 00:36:32;;;;;;;;;;;15.10;99.90;;;;;;5015811;28;1272;-54
2021/12/16 00:38:59;;;;;;;;;;;15.10;99.90;;;;;;5016641;28;905;-54
2021/12/16 00:41:26;;;;;;;;;;;15.10;99.90;;;;;;5016778;28;881;-54
2021/12/16 00:44:02;;;;;;;;;;;15.10;99.90;;;;;;5016747;28;907;-54
2021/12/16 00:54:31;;;;;;;;;;;15.00;99.90;;;;;;5012766;28;837;-54
2021/12/16 00:57:04;;;;;;;;;;;15.00;99.90;;;;;;5016398;28;946;-53
2021/12/16 00:59:35;;;;;;;;;;;15.00;99.90;;;;;;5016646;28;1137;-54
2021/12/16 01:05:10;;;;;;;;;;;14.90;99.90;;;;;;5016566;28;818;-54
2021/12/16 01:45:43;;;;;;;;;;;14.80;99.90;;;;;;5018884;28;1218;-53
2021/12/16 01:49:08;;;;;;;;;;;14.80;99.90;;;;;;5024427;28;1045;-55
2021/12/16 01:51:14;;;;;;;;;;;14.80;99.90;;;;;;5008718;28;1949;-55
2021/12/16 01:56:46;;;;;;;;;;;14.70;99.90;;;;;;5019743;28;869;-54
2021/12/16 01:59:18;;;;;;;;;;;14.70;99.90;;;;;;5019348;28;1000;-55
2021/12/16 02:01:45;;;;;;;;;;;14.70;99.90;;;;;;5029193;28;1040;-54
2021/12/16 02:04:41;;;;;;;;;;;14.70;99.90;;;;;;5037662;28;939;-53
2021/12/16 02:07:08;;;;;;;;;;;14.70;99.90;;;;;;5037344;28;1517;-54
2021/12/16 02:09:42;;;;;;;;;;;14.70;99.90;;;;;;5036194;28;1123;-54
2021/12/16 02:28:54;;;;;;;;;;;14.60;99.90;;;;;;5018965;28;814;-53
2021/12/16 02:31:47;;;;;;;;;;;14.60;99.90;;;;;;5018521;28;1966;-53
2021/12/16 02:36:48;;;;;;;;;;;14.50;99.90;;;;;;5018917;28;826;-52
2021/12/16 02:39:16;;;;;;;;;;;14.50;99.90;;;;;;5018680;28;821;-52
2021/12/16 02:41:43;;;;;;;;;;;14.50;99.90;;;;;;5018790;28;947;-52
2021/12/16 02:44:23;;;;;;;;;;;14.50;99.90;;;;;;5018912;28;849;-52
2021/12/16 02:49:37;;;;;;;;;;;14.50;99.90;;;;;;5013983;28;877;-52
2021/12/16 02:52:05;;;;;;;;;;;14.50;99.90;;;;;;5017495;28;1966;-52
2021/12/16 02:54:31;;;;;;;;;;;14.40;99.90;;;;;;5018354;28;869;-52
2021/12/16 02:56:59;;;;;;;;;;;14.40;99.90;;;;;;5018485;28;836;-52
2021/12/16 02:59:29;;;;;;;;;;;14.40;99.90;;;;;;5016826;28;899;-53
2021/12/16 03:02:10;;;;;;;;;;;14.40;99.90;;;;;;5018181;28;1344;-53
2021/12/16 03:04:38;;;;;;;;;;;14.40;99.90;;;;;;5017166;28;844;-52
2021/12/16 03:07:06;;;;;;;;;;;14.40;99.90;;;;;;5018516;28;1226;-52
2021/12/16 03:14:59;;;;;;;;;;;14.40;99.90;;;;;;5018229;28;905;-52
2021/12/16 03:17:39;;;;;;;;;;;14.40;99.90;;;;;;5016846;28;893;-52
2021/12/16 03:20:27;;;;;;;;;;;14.30;99.90;;;;;;5018022;28;947;-52
2021/12/16 03:31:08;;;;;;;;;;;14.30;99.90;;;;;;5018024;28;1977;-52
2021/12/16 03:38:56;;;;;;;;;;;14.30;99.90;;;;;;5017982;28;853;-52
2021/12/16 03:41:22;;;;;;;;;;;14.30;99.90;;;;;;4999771;28;893;-52
2021/12/16 03:43:50;;;;;;;;;;;14.30;99.90;;;;;;5016933;28;857;-52
2021/12/16 03:46:25;;;;;;;;;;;14.30;99.90;;;;;;5016820;28;943;-52
2021/12/16 03:48:58;;;;;;;;;;;14.30;99.90;;;;;;5013121;28;977;-52
2021/12/16 03:51:44;;;;;;;;;;;14.30;99.90;;;;;;5017762;28;1915;-52
2021/12/16 03:54:15;;;;;;;;;;;14.30;99.90;;;;;;5035303;28;900;-52
2021/12/16 03:56:41;;;;;;;;;;;14.30;99.90;;;;;;5017638;28;840;-52
2021/12/16 03:59:14;;;;;;;;;;;14.30;99.90;;;;;;5017628;28;794;-52
2021/12/16 04:01:39;;;;;;;;;;;14.20;99.90;;;;;;5011646;28;881;-52
2021/12/16 04:04:07;;;;;;;;;;;14.30;99.90;;;;;;5011922;28;864;-52
2021/12/16 04:06:35;;;;;;;;;;;14.20;99.90;;;;;;5011605;28;940;-52
2021/12/16 04:09:04;;;;;;;;;;;14.20;99.90;;;;;;5011527;28;961;-52
2021/12/16 04:11:38;;;;;;;;;;;14.20;99.90;;;;;;5017045;28;1914;-52
2021/12/16 04:14:08;;;;;;;;;;;14.20;99.90;;;;;;5012830;28;865;-52
2021/12/16 04:16:40;;;;;;;;;;;14.20;99.90;;;;;;5017150;28;742;-52
2021/12/16 04:19:11;;;;;;;;;;;14.20;99.90;;;;;;5017415;28;801;-52
2021/12/16 04:21:43;;;;;;;;;;;14.20;99.90;;;;;;5016960;28;1119;-52
2021/12/16 04:24:11;;;;;;;;;;;14.20;99.90;;;;;;5016989;28;810;-52
2021/12/16 04:26:39;;;;;;;;;;;14.20;99.90;;;;;;5017152;28;1321;-52
2021/12/16 04:29:07;;;;;;;;;;;14.20;99.90;;;;;;5017057;28;976;-52
2021/12/16 04:31:35;;;;;;;;;;;14.10;99.90;;;;;;5016660;28;1981;-52
2021/12/16 04:34:02;;;;;;;;;;;14.10;99.90;;;;;;5016946;28;868;-52
2021/12/16 04:36:29;;;;;;;;;;;14.10;99.90;;;;;;5016341;28;849;-52
2021/12/16 04:38:56;;;;;;;;;;;14.10;99.90;;;;;;4999049;28;1026;-52
2021/12/16 04:41:23;;;;;;;;;;;14.10;99.90;;;;;;5017126;28;892;-52
2021/12/16 04:43:50;;;;;;;;;;;14.10;99.90;;;;;;5016827;28;921;-52
2021/12/16 04:46:19;;;;;;;;;;;14.10;99.90;;;;;;5015557;28;1248;-52
2021/12/16 04:48:47;;;;;;;;;;;14.10;99.90;;;;;;5033030;28;1312;-52
2021/12/16 04:51:13;;;;;;;;;;;14.10;99.90;;;;;;5028541;28;1906;-52
2021/12/16 04:53:41;;;;;;;;;;;14.10;99.90;;;;;;5016680;28;885;-52
2021/12/16 04:56:09;;;;;;;;;;;14.10;99.90;;;;;;5015967;28;841;-52
2021/12/16 04:58:36;;;;;;;;;;;14.00;99.90;;;;;;4999074;28;869;-52
2021/12/16 05:01:03;;;;;;;;;;;14.00;99.90;;;;;;5016547;28;817;-52
2021/12/16 05:03:30;;;;;;;;;;;14.00;99.90;;;;;;5015875;28;829;-52
2021/12/16 05:05:56;;;;;;;;;;;14.00;99.90;;;;;;4995417;28;904;-52
2021/12/16 05:08:23;;;;;;;;;;;14.00;99.90;;;;;;5011635;28;916;-52
2021/12/16 05:10:53;;;;;;;;;;;14.00;99.90;;;;;;5012818;28;1914;-52
2021/12/16 05:13:22;;;;;;;;;;;14.00;99.90;;;;;;5013584;28;889;-53
2021/12/16 05:15:48;;;;;;;;;;;14.00;99.90;;;;;;5012298;28;1639;-53
2021/12/16 05:18:23;;;;;;;;;;;14.00;99.90;;;;;;5015490;28;839;-53
2021/12/16 05:20:50;;;;;;;;;;;14.00;99.90;;;;;;5013926;28;1059;-53
2021/12/16 05:28:28;;;;;;;;;;;14.00;99.90;;;;;;4998026;28;1432;-53
2021/12/16 05:30:55;;;;;;;;;;;14.00;99.90;;;;;;5010887;28;1915;-53
2021/12/16 05:33:21;;;;;;;;;;;14.00;99.90;;;;;;5016985;28;812;-52
2021/12/16 05:35:47;;;;;;;;;;;14.00;99.90;;;;;;5001003;28;1184;-53
2021/12/16 05:38:15;;;;;;;;;;;14.00;99.90;;;;;;5019124;28;1430;-52
2021/12/16 05:40:42;;;;;;;;;;;13.90;99.90;;;;;;5024073;28;1033;-52
2021/12/16 05:43:12;;;;;;;;;;;13.90;99.90;;;;;;5037985;28;902;-52
2021/12/16 05:45:40;;;;;;;;;;;13.90;99.90;;;;;;5019457;28;1152;-52
2021/12/16 05:48:09;;;;;;;;;;;13.90;99.90;;;;;;5019728;28;889;-52
2021/12/16 05:50:37;;;;;;;;;;;13.90;99.90;;;;;;5019894;28;1910;-52
2021/12/16 05:53:04;;;;;;;;;;;13.90;99.90;;;;;;5018899;28;937;-52
2021/12/16 05:55:30;;;;;;;;;;;13.90;99.90;;;;;;5019568;28;978;-54
2021/12/16 05:57:56;;;;;;;;;;;13.90;99.90;;;;;;5033812;28;936;-52
2021/12/16 06:00:25;;;;;;;;;;;13.90;99.90;;;;;;5037583;28;821;-52
2021/12/16 06:02:51;;;;;;;;;;;13.90;99.90;;;;;;5037835;28;876;-52
2021/12/16 06:05:18;;;;;;;;;;;13.90;99.90;;;;;;5037471;28;883;-52
2021/12/16 06:07:45;;;;;;;;;;;13.90;99.90;;;;;;5037547;28;873;-52
2021/12/16 06:10:43;;;;;;;;;;;14.00;99.90;;;;;;5036153;28;1392;-52
2021/12/16 06:12:59;;;;;;;;;;;14.00;99.90;;;;;;5037438;28;1256;-53
2021/12/16 06:15:45;;;;;;;;;;;14.00;99.90;;;;;;5037330;28;869;-52
2021/12/16 06:26:35;;;;;;;;;;;14.20;99.90;;;;;;5017906;28;929;-52
2021/12/16 06:29:02;;;;;;;;;;;14.30;99.90;;;;;;5019119;28;908;-53
2021/12/16 06:31:28;;;;;;;;;;;14.30;99.90;;;;;;5018731;28;1971;-54
2021/12/16 06:33:56;;;;;;;;;;;14.30;99.90;;;;;;5032277;28;1231;-54
2021/12/16 06:36:23;;;;;;;;;;;14.40;99.90;;;;;;5037394;28;837;-53
2021/12/16 06:38:51;;;;;;;;;;;14.40;99.90;;;;;;5037481;28;901;-53
2021/12/16 06:41:18;;;;;;;;;;;14.50;99.90;;;;;;5019913;28;911;-54
2021/12/16 06:43:46;;;;;;;;;;;14.50;99.90;;;;;;5037602;28;871;-54
2021/12/16 06:46:17;;;;;;;;;;;14.60;99.90;;;;;;5018909;28;902;-53
2021/12/16 06:48:48;;;;;;;;;;;14.60;99.90;;;;;;5036695;28;920;-52
2021/12/16 06:51:33;;;;;;;;;;;14.60;99.90;;;;;;5030650;28;1968;-54
2021/12/16 06:54:06;;;;;;;;;;;14.60;99.90;;;;;;5018560;28;892;-53
2021/12/16 06:56:40;;;;;;;;;;;14.70;99.90;;;;;;5023526;28;1002;-52
2021/12/16 06:59:20;;;;;;;;;;;14.70;99.90;;;;;;5036031;28;1049;-53
2021/12/16 07:04:28;;;;;;;;;;;14.70;99.90;;;;;;5018705;28;877;-53
2021/12/16 07:06:55;;;;;;;;;;;14.70;99.90;;;;;;5018376;28;829;-52
2021/12/16 07:09:23;;;;;;;;;;;14.70;99.90;;;;;;5018550;28;861;-52
2021/12/16 07:11:52;;;;;;;;;;;14.70;99.90;;;;;;5018250;28;1906;-52
2021/12/16 07:14:19;;;;;;;;;;;14.70;99.90;;;;;;5018217;28;976;-52
2021/12/16 07:16:47;;;;;;;;;;;14.60;99.90;;;;;;5018018;28;972;-52
2021/12/16 07:19:14;;;;;;;;;;;14.70;99.90;;;;;;5000422;28;922;-53
2021/12/16 07:21:41;;;;;;;;;;;14.60;99.90;;;;;;5017852;28;1287;-54
2021/12/16 07:24:13;;;;;;;;;;;14.60;99.90;;;;;;5018003;28;820;-54
2021/12/16 07:26:40;;;;;;;;;;;14.60;99.90;;;;;;5017607;28;971;-54
2021/12/16 07:29:06;;;;;;;;;;;14.60;99.90;;;;;;5017958;28;820;-54
2021/12/16 07:31:33;;;;;;;;;;;14.60;99.90;;;;;;5017892;28;1973;-54
2021/12/16 07:34:00;;;;;;;;;;;14.60;99.90;;;;;;5032258;28;1100;-52
2021/12/16 07:36:28;;;;;;;;;;;14.60;99.90;;;;;;5034933;28;902;-54
2021/12/16 07:38:55;;;;;;;;;;;14.50;99.90;;;;;;5035778;28;916;-53
2021/12/16 07:41:26;;;;;;;;;;;14.50;99.90;;;;;;5036078;28;979;-52
2021/12/16 07:43:58;;;;;;;;;;;14.50;99.90;;;;;;5035565;28;1242;-53
2021/12/16 07:46:25;;;;;;;;;;;14.50;99.90;;;;;;5035262;28;862;-54
2021/12/16 07:48:52;;;;;;;;;;;14.50;99.90;;;;;;5034533;28;1252;-52
2021/12/16 07:51:18;;;;;;;;;;;14.50;99.90;;;;;;5028885;28;1960;-52
2021/12/16 07:53:44;;;;;;;;;;;14.50;99.90;;;;;;5016562;28;909;-53
2021/12/16 07:56:10;;;;;;;;;;;14.50;99.90;;;;;;5017449;28;900;-54
2021/12/16 07:58:37;;;;;;;;;;;14.40;99.90;;;;;;5017409;28;900;-54
2021/12/16 08:01:04;;;;;;;;;;;14.40;99.90;;;;;;5017293;28;848;-53
2021/12/16 08:03:35;;;;;;;;;;;14.40;99.90;;;;;;5017271;28;901;-52
2021/12/16 08:06:05;;;;;;;;;;;14.40;99.90;;;;;;5017082;28;930;-53
2021/12/16 08:08:31;;;;;;;;;;;14.40;99.90;;;;;;5017536;28;1018;-54
2021/12/16 08:10:59;;;;;;;;;;;14.40;99.90;;;;;;5001310;28;1957;-52
2021/12/16 08:13:26;;;;;;;;;;;14.40;99.90;;;;;;5000878;28;1275;-52
2021/12/16 08:15:52;;;;;;;;;;;14.40;99.90;;;;;;5016750;28;963;-52
2021/12/16 08:18:19;;;;;;;;;;;14.40;99.90;;;;;;5027625;28;1243;-53
2021/12/16 08:20:46;;;;;;;;;;;14.40;99.90;;;;;;5032218;28;868;-52
2021/12/16 08:23:11;;;;;;;;;;;14.40;99.90;;;;;;5016965;28;1402;-52
2021/12/16 08:25:38;;;;;;;;;;;14.40;99.90;;;;;;5017424;28;802;-54
2021/12/16 08:28:05;;;;;;;;;;;14.40;99.90;;;;;;5017118;28;817;-53
2021/12/16 08:30:37;;;;;;;;;;;14.50;99.90;;;;;;5016229;28;1369;-52
2021/12/16 08:33:09;;;;;;;;;;;14.50;99.90;;;;;;5023969;28;1961;-52
2021/12/16 08:35:36;;;;;;;;;;;14.50;99.90;;;;;;5035185;28;917;-52
2021/12/16 08:38:02;;;;;;;;;;;14.50;99.90;;;;;;5035321;28;848;-52
2021/12/16 08:40:28;;;;;;;;;;;14.50;99.90;;;;;;5034495;28;1046;-53
2021/12/16 08:42:57;;;;;;;;;;;14.50;99.90;;;;;;5017283;28;1138;-52
2021/12/16 08:45:26;;;;;;;;;;;14.50;99.90;;;;;;5034884;28;883;-52
2021/12/16 08:47:52;;;;;;;;;;;14.50;99.90;;;;;;5034070;28;904;-54
2021/12/16 08:50:20;;;;;;;;;;;14.50;99.90;;;;;;5038768;28;1127;-53
2021/12/16 08:52:46;;;;;;;;;;;14.50;99.90;;;;;;5021443;28;1974;-52
2021/12/16 08:55:12;;;;;;;;;;;14.60;99.90;;;;;;5020601;28;902;-52
2021/12/16 08:57:38;;;;;;;;;;;14.60;99.90;;;;;;5020816;28;857;-52
2021/12/16 09:00:08;;;;;;;;;;;14.60;99.90;;;;;;5020615;28;953;-53
2021/12/16 09:02:35;;;;;;;;;;;14.60;99.90;;;;;;5020698;28;1007;-52
2021/12/16 09:05:04;;;;;;;;;;;14.60;99.90;;;;;;5020601;28;797;-53
2021/12/16 09:07:30;;;;;;;;;;;14.60;99.90;;;;;;5020645;28;801;-53
2021/12/16 09:09:58;;;;;;;;;;;14.60;99.90;;;;;;5020716;28;829;-53
2021/12/16 09:14:59;;;;;;;;;;;14.60;99.90;;;;;;5020426;28;861;-53
2021/12/16 09:17:26;;;;;;;;;;;14.50;99.90;;;;;;5020459;28;932;-53
2021/12/16 09:19:53;;;;;;;;;;;14.50;99.90;;;;;;5019152;28;891;-54
2021/12/16 09:22:20;;;;;;;;;;;14.50;99.90;;;;;;5020135;28;1217;-54
2021/12/16 09:24:48;;;;;;;;;;;14.50;99.90;;;;;;5019740;28;911;-52
2021/12/16 09:27:14;;;;;;;;;;;14.50;99.90;;;;;;5020238;28;915;-52
2021/12/16 09:29:40;;;;;;;;;;;14.50;99.90;;;;;;5026566;28;865;-52
2021/12/16 09:32:07;;;;;;;;;;;14.50;99.90;;;;;;5020224;28;1963;-52
2021/12/16 09:34:35;;;;;;;;;;;14.50;99.90;;;;;;5013948;28;906;-54
2021/12/16 09:37:04;;;;;;;;;;;14.50;99.90;;;;;;5014300;28;888;-54
2021/12/16 09:39:31;;;;;;;;;;;14.50;99.90;;;;;;5018029;28;925;-54
2021/12/16 09:41:59;;;;;;;;;;;14.50;99.90;;;;;;5025994;28;963;-54
2021/12/16 09:44:26;;;;;;;;;;;14.50;99.90;;;;;;5026270;28;823;-53
2021/12/16 09:46:53;;;;;;;;;;;14.50;99.90;;;;;;5001934;28;1006;-54
2021/12/16 09:49:20;;;;;;;;;;;14.50;99.90;;;;;;5019818;28;895;-52
2021/12/16 09:51:47;;;;;;;;;;;14.40;99.90;;;;;;5013658;28;1910;-53
2021/12/16 09:54:15;;;;;;;;;;;14.50;99.90;;;;;;5020045;28;910;-52
2021/12/16 09:56:43;;;;;;;;;;;14.50;99.90;;;;;;5013576;28;806;-53
2021/12/16 09:59:12;;;;;;;;;;;14.50;99.90;;;;;;5013688;28;844;-53
2021/12/16 10:01:38;;;;;;;;;;;14.50;99.90;;;;;;5019682;28;822;-54
2021/12/16 10:04:07;;;;;;;;;;;14.50;99.90;;;;;;5036601;28;893;-54
2021/12/16 10:06:36;;;;;;;;;;;14.50;99.90;;;;;;5037917;28;915;-53
2021/12/16 10:09:05;;;;;;;;;;;14.50;99.90;;;;;;5014119;28;921;-52
2021/12/16 10:11:35;;;;;;;;;;;14.50;99.90;;;;;;5014296;28;1902;-52
2021/12/16 10:19:26;;;;;;;;;;;14.50;99.90;;;;;;5018921;28;1269;-54
2021/12/16 10:21:53;;;;;;;;;;;14.50;99.90;;;;;;5018850;28;1193;-53
2021/12/16 10:24:29;;;;;;;;;;;14.50;99.90;;;;;;5019196;28;806;-54
2021/12/16 10:27:14;;;;;;;;;;;14.50;99.90;;;;;;5019114;28;845;-53
2021/12/16 10:29:46;;;;;;;;;;;14.60;99.90;;;;;;5019042;28;858;-52
2021/12/16 10:32:34;;;;;;;;;;;14.60;99.90;;;;;;5018653;28;1967;-52
2021/12/16 10:35:03;;;;;;;;;;;14.60;99.90;;;;;;5037117;28;837;-52
2021/12/16 10:37:34;;;;;;;;;;;14.60;99.90;;;;;;5037088;28;943;-54
2021/12/16 10:40:18;;;;;;;;;;;14.60;99.90;;;;;;5037006;28;868;-54
2021/12/16 10:42:45;;;;;;;;;;;14.60;99.90;;;;;;5015155;28;823;-53
2021/12/16 10:45:28;;;;;;;;;;;14.60;99.90;;;;;;5014575;28;1159;-52
2021/12/16 10:48:13;;;;;;;;;;;14.60;99.90;;;;;;5017723;28;893;-54
2021/12/16 10:50:58;;;;;;;;;;;14.60;99.90;;;;;;5018869;28;883;-53
2021/12/16 10:53:43;;;;;;;;;;;14.60;99.90;;;;;;5018654;28;1931;-53
2021/12/16 10:56:09;;;;;;;;;;;14.60;99.90;;;;;;5018402;28;859;-52
2021/12/16 10:58:54;;;;;;;;;;;14.60;99.90;;;;;;5018512;28;881;-54
2021/12/16 11:01:34;;;;;;;;;;;14.60;99.90;;;;;;5018276;28;809;-54
2021/12/16 11:04:01;;;;;;;;;;;14.60;99.90;;;;;;5018210;28;937;-54
2021/12/16 11:06:33;;;;;;;;;;;14.60;99.90;;;;;;5000623;28;918;-54
2021/12/16 11:09:19;;;;;;;;;;;14.60;99.90;;;;;;5018543;28;802;-54
2021/12/16 11:11:45;;;;;;;;;;;14.60;99.90;;;;;;5016726;28;1966;-55
2021/12/16 11:14:12;;;;;;;;;;;14.60;99.90;;;;;;5025893;28;884;-54
2021/12/16 11:16:39;;;;;;;;;;;14.60;99.90;;;;;;5018307;28;866;-54
2021/12/16 11:19:07;;;;;;;;;;;14.60;99.90;;;;;;5018201;28;872;-53
2021/12/16 11:21:40;;;;;;;;;;;14.60;99.90;;;;;;5017947;28;1300;-54
2021/12/16 11:24:23;;;;;;;;;;;14.50;99.90;;;;;;5017699;28;1343;-54
2021/12/16 11:26:49;;;;;;;;;;;14.60;99.90;;;;;;5029631;28;863;-54
2021/12/16 11:29:17;;;;;;;;;;;14.60;99.90;;;;;;5036045;28;857;-55
2021/12/16 11:31:44;;;;;;;;;;;14.60;99.90;;;;;;5035894;28;1906;-54
2021/12/16 11:34:12;;;;;;;;;;;14.60;99.90;;;;;;5036077;28;884;-53
2021/12/16 11:36:46;;;;;;;;;;;14.60;99.90;;;;;;5035941;28;809;-52
2021/12/16 11:39:20;;;;;;;;;;;14.60;99.90;;;;;;5035813;28;881;-52
2021/12/16 11:41:50;;;;;;;;;;;14.60;99.90;;;;;;5035789;28;878;-53
2021/12/16 11:44:24;;;;;;;;;;;14.60;99.90;;;;;;5036171;28;1006;-54
2021/12/16 11:47:01;;;;;;;;;;;14.60;99.90;;;;;;5014520;28;882;-54
2021/12/16 11:49:31;;;;;;;;;;;14.60;99.90;;;;;;5017109;28;913;-54
2021/12/16 11:51:58;;;;;;;;;;;14.60;99.90;;;;;;5017613;28;1963;-54
2021/12/16 11:54:43;;;;;;;;;;;14.60;99.90;;;;;;5017450;28;937;-53
2021/12/16 11:57:20;;;;;;;;;;;14.60;99.90;;;;;;5017367;28;805;-52
2021/12/16 12:00:07;;;;;;;;;;;14.60;99.90;;;;;;5017432;28;1096;-52
2021/12/16 12:02:39;;;;;;;;;;;14.60;99.90;;;;;;5017548;28;817;-52
2021/12/16 12:05:17;;;;;;;;;;;14.60;99.90;;;;;;5017385;28;826;-55
2021/12/16 12:07:46;;;;;;;;;;;14.60;99.90;;;;;;5013671;28;956;-54
2021/12/16 12:10:15;;;;;;;;;;;14.60;99.90;;;;;;5017474;28;912;-54
2021/12/16 12:12:42;;;;;;;;;;;14.60;99.90;;;;;;5016983;28;1911;-54
2021/12/16 12:15:14;;;;;;;;;;;14.60;99.90;;;;;;5016913;28;892;-55
2021/12/16 12:17:49;;;;;;;;;;;14.60;99.90;;;;;;5017131;28;865;-54
2021/12/16 12:20:15;;;;;;;;;;;14.60;99.90;;;;;;5016897;28;1345;-53
2021/12/16 12:22:43;;;;;;;;;;;14.60;99.90;;;;;;5032902;28;1302;-54
2021/12/16 12:25:09;;;;;;;;;;;14.60;99.90;;;;;;5035059;28;857;-55
2021/12/16 12:27:35;;;;;;;;;;;14.60;99.90;;;;;;5035411;28;811;-54
2021/12/16 12:30:05;;;;;;;;;;;14.60;99.90;;;;;;5034982;28;871;-53
2021/12/16 12:32:32;;;;;;;;;;;14.60;99.90;;;;;;5019288;28;1910;-53
2021/12/16 12:34:58;;;;;;;;;;;14.60;99.90;;;;;;5016686;28;926;-55
2021/12/16 12:37:27;;;;;;;;;;;14.60;99.90;;;;;;5017320;28;834;-53
2021/12/16 12:39:57;;;;;;;;;;;14.70;99.90;;;;;;5016915;28;920;-54
2021/12/16 12:42:25;;;;;;;;;;;14.60;99.90;;;;;;5016613;28;996;-53
2021/12/16 12:44:51;;;;;;;;;;;14.70;99.90;;;;;;5016368;28;970;-52
2021/12/16 12:47:20;;;;;;;;;;;14.70;99.90;;;;;;5015248;28;1010;-53
2021/12/16 12:49:47;;;;;;;;;;;14.70;99.90;;;;;;5016914;28;889;-54
2021/12/16 12:52:15;;;;;;;;;;;14.70;99.90;;;;;;5016601;28;1979;-54
2021/12/16 12:54:43;;;;;;;;;;;14.70;99.90;;;;;;5016805;28;813;-54
2021/12/16 12:57:28;;;;;;;;;;;14.70;99.90;;;;;;5016584;28;925;-54
2021/12/16 12:59:57;;;;;;;;;;;14.70;99.90;;;;;;5017017;28;947;-53
2021/12/16 13:02:29;;;;;;;;;;;14.60;99.90;;;;;;5021023;28;976;-52
2021/12/16 13:05:19;;;;;;;;;;;14.70;99.90;;;;;;5016043;28;1331;-52
2021/12/16 13:07:52;;;;;;;;;;;14.70;99.90;;;;;;5008216;28;1820;-53
2021/12/16 13:10:29;;;;;;;;;;;14.70;99.90;;;;;;5016537;28;845;-53
2021/12/16 13:30:04;;;;;;;;;;;14.60;99.90;;;;;;5034582;28;849;-54
2021/12/16 13:32:47;;;;;;;;;;;14.60;99.90;;;;;;5033176;28;1978;-54
2021/12/16 13:37:51;;;;;;;;;;;14.60;99.90;;;;;;5038542;28;916;-54
2021/12/16 13:40:20;;;;;;;;;;;14.60;99.90;;;;;;5038080;28;948;-53
2021/12/16 13:42:53;;;;;;;;;;;14.60;99.90;;;;;;5020211;28;1070;-54
2021/12/16 13:45:28;;;;;;;;;;;14.60;99.90;;;;;;5003783;28;1021;-52
2021/12/16 14:02:50;;;;;;;;;;;14.60;99.90;;;;;;5019440;28;806;-54
2021/12/16 14:05:33;;;;;;;;;;;14.60;99.90;;;;;;5019876;28;809;-54
2021/12/16 14:08:06;;;;;;;;;;;14.60;99.90;;;;;;5018905;28;925;-53
2021/12/16 14:10:42;;;;;;;;;;;14.60;99.90;;;;;;5019344;28;986;-54
2021/12/16 14:16:41;;;;;;;;;;;14.60;99.90;;;;;;5017766;28;990;-54
2021/12/16 14:25:01;;;;;;;;;;;14.60;99.90;;;;;;5019293;28;838;-55
2021/12/16 14:46:44;;;;;;;;;;;14.60;99.90;;;;;;5017821;28;806;-54
2021/12/16 14:49:10;;;;;;;;;;;14.60;99.90;;;;;;5018462;28;963;-54
2021/12/16 14:51:36;;;;;;;;;;;14.60;99.90;;;;;;5018898;28;844;-54
2021/12/16 14:54:04;;;;;;;;;;;14.60;99.90;;;;;;5018539;28;1898;-54
2021/12/16 14:56:32;;;;;;;;;;;14.60;99.90;;;;;;5018484;28;1027;-54
2021/12/16 14:59:04;;;;;;;;;;;14.60;99.90;;;;;;5018579;28;825;-54
2021/12/16 15:01:41;;;;;;;;;;;14.60;99.90;;;;;;5018417;28;849;-54
2021/12/16 15:04:09;;;;;;;;;;;14.60;99.90;;;;;;5018394;28;1099;-54
2021/12/16 15:06:43;;;;;;;;;;;14.60;99.90;;;;;;5023696;28;862;-54
2021/12/16 15:09:20;;;;;;;;;;;14.60;99.90;;;;;;5037049;28;846;-54
2021/12/16 15:17:47;;;;;;;;;;;14.50;99.90;;;;;;5036436;28;845;-54
2021/12/16 15:39:49;;;;;;;;;;;14.50;99.90;;;;;;5013162;28;839;-54
2021/12/16 15:45:12;;;;;;;;;;;14.50;99.90;;;;;;5017174;28;912;-54
2021/12/16 15:47:44;;;;;;;;;;;14.50;99.90;;;;;;5011318;28;885;-54
2021/12/16 15:50:11;;;;;;;;;;;14.50;99.90;;;;;;5012095;28;926;-54
2021/12/16 15:52:40;;;;;;;;;;;14.50;99.90;;;;;;5017464;28;1973;-53
2021/12/16 15:55:08;;;;;;;;;;;14.50;99.90;;;;;;5017483;28;898;-54
2021/12/16 15:57:35;;;;;;;;;;;14.50;99.90;;;;;;5017024;28;916;-53
2021/12/16 16:00:18;;;;;;;;;;;14.50;99.90;;;;;;5017615;28;1020;-52
2021/12/16 16:02:45;;;;;;;;;;;14.50;99.90;;;;;;5017386;28;874;-53
2021/12/16 16:05:11;;;;;;;;;;;14.50;99.90;;;;;;5017274;28;940;-53
2021/12/16 16:07:39;;;;;;;;;;;14.50;99.90;;;;;;5017366;28;809;-52
2021/12/16 16:10:08;;;;;;;;;;;14.50;99.90;;;;;;5017655;28;825;-54
2021/12/16 16:12:35;;;;;;;;;;;14.50;99.90;;;;;;5017144;28;1910;-54
2021/12/16 16:15:16;;;;;;;;;;;14.50;99.90;;;;;;5017270;28;903;-53
2021/12/16 16:17:53;;;;;;;;;;;14.50;99.90;;;;;;5016116;28;975;-54
2021/12/16 16:20:21;;;;;;;;;;;14.50;99.90;;;;;;5016802;28;961;-53
2021/12/16 16:22:47;;;;;;;;;;;14.50;99.90;;;;;;5016963;28;1142;-54
2021/12/16 16:25:13;;;;;;;;;;;14.50;99.90;;;;;;5030214;28;1246;-53
2021/12/16 16:27:40;;;;;;;;;;;14.50;99.90;;;;;;5035043;28;848;-53
2021/12/16 16:30:08;;;;;;;;;;;14.50;99.90;;;;;;5034385;28;873;-54
2021/12/16 16:32:53;;;;;;;;;;;14.50;99.90;;;;;;5017820;28;1910;-53
2021/12/16 16:35:19;;;;;;;;;;;14.50;99.90;;;;;;5035312;28;938;-53
2021/12/16 16:37:45;;;;;;;;;;;14.50;99.90;;;;;;5035202;28;846;-52
2021/12/16 16:40:11;;;;;;;;;;;14.50;99.90;;;;;;5016651;28;881;-54
2021/12/16 16:42:40;;;;;;;;;;;14.50;99.90;;;;;;5016872;28;857;-54
2021/12/16 16:45:23;;;;;;;;;;;14.50;99.90;;;;;;5016734;28;901;-53
2021/12/16 16:48:03;;;;;;;;;;;14.50;99.90;;;;;;5016462;28;978;-53
2021/12/16 16:50:38;;;;;;;;;;;14.50;99.90;;;;;;5014285;28;960;-53
2021/12/16 16:53:06;;;;;;;;;;;14.50;99.90;;;;;;5016973;28;1899;-54
2021/12/16 16:55:33;;;;;;;;;;;14.50;99.90;;;;;;5014677;28;884;-54
2021/12/16 16:58:01;;;;;;;;;;;14.50;99.90;;;;;;5013711;28;1351;-54
2021/12/16 17:00:29;;;;;;;;;;;14.50;99.90;;;;;;5022300;28;880;-54
2021/12/16 17:02:56;;;;;;;;;;;14.50;99.90;;;;;;5016629;28;1127;-54
2021/12/16 17:05:28;;;;;;;;;;;14.50;99.90;;;;;;5016685;28;877;-53
2021/12/16 17:08:04;;;;;;;;;;;14.40;99.90;;;;;;5015792;28;1097;-53
2021/12/16 17:10:49;;;;;;;;;;;14.50;99.90;;;;;;5023340;28;1389;-52
2021/12/16 17:13:36;;;;;;;;;;;14.50;99.90;;;;;;5018880;28;1957;-54
2021/12/16 17:18:55;;;;;;;;;;;14.50;99.90;;;;;;5019661;28;874;-52
2021/12/16 17:21:24;;;;;;;;;;;14.50;99.90;;;;;;5020473;28;1276;-52
2021/12/16 17:23:55;;;;;;;;;;;14.40;99.90;;;;;;5019112;28;974;-52
2021/12/16 17:26:38;;;;;;;;;;;14.50;99.90;;;;;;5020503;28;829;-55
2021/12/16 17:29:06;;;;;;;;;;;14.40;99.90;;;;;;5020263;28;909;-54
2021/12/16 17:31:46;;;;;;;;;;;14.40;99.90;;;;;;5015629;28;929;-53
2021/12/16 17:34:20;;;;;;;;;;;14.50;99.90;;;;;;5019734;28;1964;-53
2021/12/16 17:36:51;;;;;;;;;;;14.40;99.90;;;;;;5020079;28;892;-53
2021/12/16 17:39:18;;;;;;;;;;;14.50;99.90;;;;;;5020076;28;900;-52
2021/12/16 17:41:52;;;;;;;;;;;14.50;99.90;;;;;;5019832;28;1007;-53
2021/12/16 17:44:18;;;;;;;;;;;14.40;99.90;;;;;;5019763;28;887;-52
2021/12/16 17:46:49;;;;;;;;;;;14.50;99.90;;;;;;5025948;28;900;-52
2021/12/16 17:49:16;;;;;;;;;;;14.50;99.90;;;;;;5019941;28;844;-53
2021/12/16 17:51:43;;;;;;;;;;;14.50;99.90;;;;;;5019803;28;829;-53
2021/12/16 17:54:12;;;;;;;;;;;14.50;99.90;;;;;;5017967;28;1902;-53
2021/12/16 17:56:48;;;;;;;;;;;14.50;99.90;;;;;;5018177;28;812;-53
2021/12/16 17:59:15;;;;;;;;;;;14.40;99.90;;;;;;5019933;28;799;-53
2021/12/16 18:01:44;;;;;;;;;;;14.40;99.90;;;;;;5019512;28;891;-53
2021/12/16 18:04:19;;;;;;;;;;;14.50;99.90;;;;;;5019791;28;920;-53
2021/12/16 18:06:45;;;;;;;;;;;14.50;99.90;;;;;;5019853;28;883;-54
2021/12/16 18:09:18;;;;;;;;;;;14.50;99.90;;;;;;5019374;28;874;-54
2021/12/16 18:11:49;;;;;;;;;;;14.50;99.90;;;;;;5019436;28;879;-54
2021/12/16 18:14:18;;;;;;;;;;;14.50;99.90;;;;;;5019363;28;1956;-54
2021/12/16 18:17:03;;;;;;;;;;;14.50;99.90;;;;;;5019101;28;813;-54
2021/12/16 18:19:29;;;;;;;;;;;14.50;99.90;;;;;;5019321;28;762;-54
2021/12/16 18:21:57;;;;;;;;;;;14.50;99.90;;;;;;5030068;28;1141;-54
2021/12/16 18:24:49;;;;;;;;;;;14.50;99.90;;;;;;5037723;28;893;-53
2021/12/16 18:27:18;;;;;;;;;;;14.50;99.90;;;;;;5033350;28;1739;-52
2021/12/16 18:29:44;;;;;;;;;;;14.50;99.90;;;;;;5037519;28;819;-55
2021/12/16 18:32:10;;;;;;;;;;;14.50;99.90;;;;;;5037287;28;910;-54
2021/12/16 18:34:36;;;;;;;;;;;14.50;99.90;;;;;;5030821;28;1914;-54
2021/12/16 18:37:07;;;;;;;;;;;14.50;99.90;;;;;;5037302;28;857;-53
2021/12/16 18:39:36;;;;;;;;;;;14.50;99.90;;;;;;5035686;28;902;-55
2021/12/16 18:42:04;;;;;;;;;;;14.40;99.90;;;;;;5037177;28;891;-54
2021/12/16 18:44:34;;;;;;;;;;;14.40;99.90;;;;;;5035687;28;952;-54
2021/12/16 18:47:10;;;;;;;;;;;14.50;99.90;;;;;;5037067;28;789;-54
2021/12/16 18:49:45;;;;;;;;;;;14.50;99.90;;;;;;5036671;28;820;-54
2021/12/16 18:52:28;;;;;;;;;;;14.50;99.90;;;;;;5023536;28;1093;-54
2021/12/16 18:54:55;;;;;;;;;;;14.50;99.90;;;;;;5018812;28;778;-54
2021/12/16 18:57:22;;;;;;;;;;;14.40;99.90;;;;;;5018464;28;823;-54